Wetterdaten: Mittwoch, 10.06.2015
Datum Zeit Temp. A. Feuchte A. Luftdruck Regen Wind Richtung Richtung Sonnenschein ET UV Solar Taupunkt Windchill Windben Empfang
10.06.2015 00:00 12,7 C 84 % 1021,7 hPa 0,0 l/m 0,0 km/h (0 Bft) O 90 0 min 0,000 mm 0,0 UV-I 0 W/m 10,1 C 12,7 C 0,0 km/h (0 Bft) 0,00 %
10.06.2015 01:00 12,3 C 87 % 1021,7 hPa 0,0 l/m 0,0 km/h (0 Bft) SO 130 0 min 0,000 mm 0,0 UV-I 0 W/m 10,2 C 12,3 C 0,0 km/h (0 Bft) 0,00 %
10.06.2015 02:00 12,0 C 86 % 1021,4 hPa 0,0 l/m 3,2 km/h (1 Bft) NO 40 0 min 0,000 mm 0,0 UV-I 0 W/m 9,7 C 12,0 C 7,9 km/h (2 Bft) 0,00 %
10.06.2015 03:00 11,9 C 85 % 1020,7 hPa 0,0 l/m 0,0 km/h (0 Bft) SW 220 0 min 0,000 mm 0,0 UV-I 0 W/m 9,5 C 11,9 C 4,0 km/h (1 Bft) 0,00 %
10.06.2015 04:00 11,9 C 86 % 1020,7 hPa 0,0 l/m 0,0 km/h (0 Bft) O 90 0 min 0,000 mm 0,0 UV-I 0 W/m 9,6 C 11,9 C 0,0 km/h (0 Bft) 0,00 %
10.06.2015 05:00 12,0 C 87 % 1020,3 hPa 0,0 l/m 0,0 km/h (0 Bft) O-SO 110 0 min 0,000 mm 0,0 UV-I 0 W/m 9,9 C 12,0 C 0,0 km/h (0 Bft) 0,00 %
10.06.2015 06:00 12,2 C 84 % 1021,0 hPa 0,0 l/m 0,0 km/h (0 Bft) S-SW 210 0 min 0,000 mm 0,0 UV-I 7 W/m 9,6 C 12,2 C 0,0 km/h (0 Bft) 0,00 %
10.06.2015 07:00 12,7 C 83 % 1021,2 hPa 0,0 l/m 1,8 km/h (1 Bft) N-NO 30 0 min 0,000 mm 0,0 UV-I 80 W/m 9,9 C 12,7 C 4,0 km/h (1 Bft) 0,00 %
10.06.2015 08:00 13,2 C 83 % 1021,6 hPa 0,0 l/m 4,3 km/h (1 Bft) O 90 0 min 0,000 mm 1,0 UV-I 144 W/m 10,4 C 13,2 C 7,9 km/h (2 Bft) 0,00 %
10.06.2015 09:00 13,4 C 83 % 1021,9 hPa 0,0 l/m 2,9 km/h (1 Bft) O 90 0 min 0,000 mm 1,0 UV-I 112 W/m 10,6 C 13,4 C 4,0 km/h (1 Bft) 0,00 %
10.06.2015 10:00 13,9 C 80 % 1021,5 hPa 0,0 l/m 7,9 km/h (2 Bft) S-SW 210 0 min 0,000 mm 2,0 UV-I 244 W/m 10,5 C 13,0 C 11,9 km/h (2 Bft) 0,00 %
10.06.2015 11:00 15,2 C 74 % 1020,9 hPa 0,0 l/m 10,5 km/h (2 Bft) SO 130 0 min 0,000 mm 2,0 UV-I 383 W/m 10,6 C 13,1 C 15,8 km/h (3 Bft) 0,00 %
10.06.2015 12:00 16,6 C 71 % 1020,6 hPa 0,0 l/m 9,0 km/h (2 Bft) O 90 60 min 0,000 mm 4,0 UV-I 578 W/m 11,3 C 15,3 C 15,8 km/h (3 Bft) 0,00 %
10.06.2015 13:00 18,2 C 62 % 1020,1 hPa 0,0 l/m 9,7 km/h (2 Bft) S-SO 150 60 min 0,000 mm 4,0 UV-I 583 W/m 10,8 C 16,8 C 11,9 km/h (2 Bft) 0,00 %
10.06.2015 14:00 18,4 C 64 % 1019,3 hPa 0,0 l/m 0,0 km/h (0 Bft) SO 130 0 min 0,000 mm 2,0 UV-I 387 W/m 11,5 C 18,4 C 0,0 km/h (0 Bft) 0,00 %
10.06.2015 15:00 21,0 C 54 % 1018,6 hPa 0,0 l/m 0,3 km/h (0 Bft) SO 140 60 min 0,000 mm 4,0 UV-I 744 W/m 11,3 C 21,0 C 4,0 km/h (1 Bft) 0,00 %
10.06.2015 16:00 19,7 C 64 % 1018,5 hPa 0,0 l/m 0,0 km/h (0 Bft) N 359 0 min 0,000 mm 2,0 UV-I 331 W/m 12,7 C 19,7 C 0,0 km/h (0 Bft) 0,00 %
10.06.2015 17:00 22,1 C 55 % 1017,7 hPa 0,0 l/m 0,0 km/h (0 Bft) NW 310 60 min 0,000 mm 2,0 UV-I 639 W/m 12,6 C 22,1 C 0,0 km/h (0 Bft) 0,00 %
10.06.2015 18:00 21,1 C 59 % 1017,1 hPa 0,0 l/m 0,0 km/h (0 Bft) S 180 60 min 0,000 mm 1,0 UV-I 564 W/m 12,8 C 21,1 C 0,0 km/h (0 Bft) 0,00 %
10.06.2015 19:00 21,4 C 60 % 1017,1 hPa 0,0 l/m 0,0 km/h (0 Bft) SO 140 60 min 0,000 mm 1,0 UV-I 296 W/m 13,3 C 21,4 C 0,0 km/h (0 Bft) 0,00 %
10.06.2015 20:00 19,2 C 70 % 1017,8 hPa 0,0 l/m 0,0 km/h (0 Bft) NO 50 60 min 0,000 mm 0,0 UV-I 85 W/m 13,6 C 19,2 C 0,0 km/h (0 Bft) 0,00 %
10.06.2015 21:00 17,3 C 81 % 1018,4 hPa 0,0 l/m 0,0 km/h (0 Bft) O 90 0 min 0,000 mm 0,0 UV-I 0 W/m 14,0 C 17,3 C 0,0 km/h (0 Bft) 0,00 %
10.06.2015 22:00 16,0 C 82 % 1019,1 hPa 0,0 l/m 0,0 km/h (0 Bft) O-SO 120 0 min 0,000 mm 0,0 UV-I 0 W/m 12,9 C 16,0 C 0,0 km/h (0 Bft) 0,00 %
10.06.2015 23:00 15,0 C 88 % 1019,5 hPa 0,0 l/m 0,0 km/h (0 Bft) O-SO 120 0 min 0,000 mm 0,0 UV-I 0 W/m 13,0 C 15,0 C 0,0 km/h (0 Bft) 0,00 %
_ Min-Zeit 03:00 15:00 18:00 - 00:00 - - - - - - 03:00 03:00 00:00 00:00
Minimum _ 11,9 C 54 % 1017,1 hPa - 0,0 km/h (0 Bft) - - - - - - 9,5 C 11,9 C 0,0 km/h (0 Bft) 0,00 %
_ Max-Zeit 17:00 23:00 09:00 00:00 11:00 - - 12:00 00:00 12:00 15:00 21:00 17:00 11:00 00:00
Maximum _ 22,1 C 88 % 1021,9 hPa 0,0 l/m 10,5 km/h
SO (2 Bft)
- - 60 min 0,000 mm 4,0 UV-I 744 W/m 14,0 C 22,1 C 15,8 km/h
SO (3 Bft)
0,00 %
Durchschnitt _ 15,9 C 75 % 1019,9 hPa #0,0 l/m 2,2 km/h (1 Bft) O - #7:00 h #0,000 mm 2,2 UV-I 345 W/m 11,3 C 15,7 C 3,8 km/h (1 Bft) 0,00 %